South Bend Regional Airport
KSBN : now visible

Airfield :











YOU CAN JOIN US ON...

 
LOGIN :

Register | Disclaimer

   EN    FR    IT 

 









Legend :    VFR   Marginal VFR   IFR   Intensive IFR   Very Intensive IFR
Visi :
Ceiling :
>= 8 km
>= 3000ft
5 to 8 km
1000 to 3000 ft
1500m to 5 km
500 to 1000 ft
800 to 1500m
200 to 500 ft
< 800m
< 200 ft
Symbols :   Thunderstorms  Fog  Heavy snow  Heavy precipitations  Wind > 20 kt






- Airport Elevation : 799 ft
- IATA code : SBN


KSBN - South Bend Regional

CURRENT METAR :
  • 082354Z 21005KT 10SM CLR 29/21 A2990 RMK AO2 SLP120 T02890211 10339 20283 56004

EXPIRED METARs :
  • 082254Z 21003KT 10SM CLR 29/21 A2991 RMK AO2 SLP120 T02890211
  • 082154Z AUTO 17009KT 10SM BKN048 31/21 A2992 RMK AO2 SLP123 T03060211

TAF KSBN
Valid from the 09 at 00:00 until the 10 at 00:00 UTC


082342Z 0900/0924 VRB03KT P6SM FEW050 SCT250
FM091500 20008KT P6SM VCSH BKN050
KZAU FIR / North America



MET'MAP, your aeronautical weather chart ! - Copyright ORBIFLY December 2007 - Disclaimer

ORBIFLY MET'MAP TEAM :

Programming & Development : Alexandra Zaïnal
Concept & original design : Baudouin d'Aumeries
Assistance for programming : Marc-Olivier Méhu
Technical & hardware support : Manuel Goepfert

Contact : metmap@orbifly.com




SOURCES & CREDITS :

   NOAA       Earth
Advisory